Fecha, hora, temperatura, viento dirección y velocidad, humedad y presión.

  • 19-03-2019 23:00:00 | 13.40°C | Nordeste |12.00 km/h | 45.00% | 1019.80 hPa
  • 19-03-2019 22:00:00 | 14.90°C | Este |12.00 km/h | 40.00% | 1019.40 hPa
  • 19-03-2019 21:00:00 | 15.80°C | Este |13.00 km/h | 39.00% | 1018.70 hPa
  • 19-03-2019 20:00:00 | 18.80°C | Nordeste |13.00 km/h | 29.00% | 1018.20 hPa
  • 19-03-2019 19:00:00 | 20.90°C | Nordeste |20.00 km/h | 26.00% | 1017.40 hPa
  • 19-03-2019 18:00:00 | 22.10°C | Nordeste |22.00 km/h | 25.00% | 1016.80 hPa
  • 19-03-2019 17:00:00 | 22.50°C | Norte |21.00 km/h | 23.00% | 1016.60 hPa
  • 19-03-2019 16:00:00 | 22.10°C | Nordeste |16.00 km/h | 24.00% | 1016.80 hPa
  • 19-03-2019 15:00:00 | 21.60°C | Nordeste |14.00 km/h | 25.00% | 1017.20 hPa
  • 19-03-2019 14:00:00 | 20.70°C | Este |15.00 km/h | 24.00% | 1018.20 hPa
  • 19-03-2019 13:00:00 | 19.60°C | Este |22.00 km/h | 28.00% | 1019.10 hPa
  • 19-03-2019 12:00:00 | 18.20°C | Nordeste |19.00 km/h | 47.00% | 1019.60 hPa
  • 19-03-2019 11:00:00 | 17.00°C | Nordeste |12.00 km/h | 66.00% | 1019.50 hPa
  • 19-03-2019 10:00:00 | 14.40°C | Norte |7.00 km/h | 82.00% | 1019.40 hPa
  • 19-03-2019 09:00:00 | 10.70°C | Norte |5.00 km/h | 90.00% | 1019.30 hPa
  • 19-03-2019 08:00:00 | 8.60°C | Nordeste |7.00 km/h | 93.00% | 1019.00 hPa
  • 19-03-2019 07:00:00 | 10.20°C | Este |9.00 km/h | 98.00% | 1018.30 hPa
  • 19-03-2019 06:00:00 | 8.10°C | Nordeste |7.00 km/h | 93.00% | 1018.00 hPa
  • 19-03-2019 05:00:00 | 8.50°C | Este |3.00 km/h | 91.00% | 1018.10 hPa
  • 19-03-2019 04:00:00 | 9.40°C | Este |4.00 km/h | 93.00% | 1018.20 hPa
  • 19-03-2019 03:00:00 | 10.00°C | Sur |4.00 km/h | 90.00% | 1018.40 hPa
  • 19-03-2019 02:00:00 | 12.30°C | Sudoeste |5.00 km/h | 85.00% | 1018.80 hPa
  • 19-03-2019 01:00:00 | 12.70°C | Sudoeste |5.00 km/h | 83.00% | 1018.70 hPa
  • 19-03-2019 00:00:00 | 14.30°C | Sudoeste |13.00 km/h | 77.00% | 1018.60 hPa
    • diseño web asturias Información sobre el estado de las mareas, altura de la marejada, temperatura del agua y otros datos de Gijón en Asturias.

      Surf Gijón